Time;durP1;ratioP1;P1;durP2;ratioP2;P2;SDS_P1;SDS_P2;PMS_P1;PMS_P2;Temp;Humidity;BMP_temperature;BMP_pressure;BME280_temperature;BME280_humidity;BME280_pressure;Samples;Min_cycle;Max_cycle;Signal;HPM_P1;HPM_P2
2023/09/25 00:04:06;;;;;;;2.70;1.60;;;23.40;65.80;;;;;;10467765;28;20474;-41
2023/09/25 00:09:08;;;;;;;2.17;1.20;;;23.30;65.80;;;;;;10450376;28;20478;-31
2023/09/25 00:14:11;;;;;;;2.08;1.20;;;23.20;65.90;;;;;;10447595;28;20060;-29
2023/09/25 00:19:13;;;;;;;1.45;1.08;;;23.30;65.80;;;;;;10459890;28;20605;-33
2023/09/25 00:24:15;;;;;;;;;;;23.20;66.60;;;;;;10461508;28;20489;-34
2023/09/25 00:29:18;;;;;;;3.72;1.60;;;23.30;65.90;;;;;;10456498;28;19925;-43
2023/09/25 00:34:20;;;;;;;3.03;1.40;;;23.00;66.20;;;;;;10449401;28;20048;-36
2023/09/25 00:39:21;;;;;;;1.70;1.00;;;23.20;66.00;;;;;;10452408;28;20511;-33
2023/09/25 00:44:25;;;;;;;2.30;1.35;;;23.20;66.20;;;;;;10459069;28;20086;-38
2023/09/25 00:49:27;;;;;;;1.85;1.35;;;23.20;66.00;;;;;;10447806;28;20490;-38
2023/09/25 00:54:31;;;;;;;1.83;1.13;;;23.20;66.10;;;;;;10452384;28;20135;-41
2023/09/25 00:59:36;;;;;;;1.67;0.88;;;23.20;66.00;;;;;;10440795;28;20053;-39
2023/09/25 01:04:38;;;;;;;2.45;1.00;;;23.20;66.00;;;;;;10459152;28;20045;-41
2023/09/25 01:09:40;;;;;;;1.75;1.00;;;23.20;66.00;;;;;;10456075;28;20500;-40
2023/09/25 01:14:45;;;;;;;5.70;1.50;;;23.10;66.00;;;;;;10440288;28;20520;-35
2023/09/25 01:19:47;;;;;;;2.17;1.15;;;23.10;66.10;;;;;;10448885;28;20358;-39
2023/09/25 01:24:50;;;;;;;;;;;23.10;66.00;;;;;;10447049;28;20219;-37
2023/09/25 01:29:52;;;;;;;1.80;1.10;;;23.10;66.10;;;;;;10445954;28;20374;-36
2023/09/25 01:34:54;;;;;;;1.92;1.08;;;23.10;66.20;;;;;;10448627;28;20073;-41
2023/09/25 01:39:57;;;;;;;;;;;23.00;66.20;;;;;;10437134;28;20861;-39
2023/09/25 01:44:59;;;;;;;1.83;1.10;;;23.10;66.20;;;;;;10452727;28;19928;-39
2023/09/25 01:50:01;;;;;;;2.00;1.27;;;23.00;66.30;;;;;;10446214;28;20052;-39
2023/09/25 01:55:04;;;;;;;;;;;23.00;66.40;;;;;;10448682;28;20077;-40
2023/09/25 02:00:10;;;;;;;3.60;1.23;;;22.90;66.50;;;;;;10452092;28;19924;-35
2023/09/25 02:05:12;;;;;;;1.85;1.23;;;23.00;66.50;;;;;;10455945;28;20076;-38
2023/09/25 02:10:15;;;;;;;1.45;1.05;;;22.90;66.50;;;;;;10435298;28;20099;-37
2023/09/25 02:15:17;;;;;;;1.98;1.25;;;22.90;66.60;;;;;;10450806;28;20057;-39
2023/09/25 02:20:20;;;;;;;4.75;1.55;;;23.00;66.60;;;;;;10444920;28;20426;-28
2023/09/25 02:25:23;;;;;;;2.05;1.40;;;22.90;66.50;;;;;;10454132;28;20061;-34
2023/09/25 02:30:25;;;;;;;2.05;1.50;;;22.90;66.60;;;;;;10450894;28;20549;-41
2023/09/25 02:35:27;;;;;;;2.65;1.40;;;22.90;66.70;;;;;;10437749;28;20047;-41
2023/09/25 02:40:30;;;;;;;1.80;1.20;;;22.90;66.60;;;;;;10441965;28;20106;-34
2023/09/25 02:45:33;;;;;;;8.00;1.27;;;22.80;66.70;;;;;;10447631;28;20127;-38
2023/09/25 02:50:34;;;;;;;;;;;22.80;66.60;;;;;;10433164;28;20127;-37
2023/09/25 02:55:37;;;;;;;1.80;1.20;;;22.70;66.80;;;;;;10439884;28;20293;-36
2023/09/25 03:15:29;;;;;;;1.38;0.93;;;22.60;66.90;;;;;;10541222;27;20121;-43
2023/09/25 03:20:32;;;;;;;2.40;1.20;;;22.60;67.10;;;;;;10559447;28;20123;-29
2023/09/25 03:25:35;;;;;;;1.17;1.00;;;22.60;67.00;;;;;;10562532;28;20075;-33
2023/09/25 03:30:38;;;;;;;2.28;1.05;;;22.60;67.20;;;;;;10556975;28;20051;-32
2023/09/25 03:35:40;;;;;;;2.60;1.33;;;22.60;67.10;;;;;;10565619;28;20054;-38
2023/09/25 03:40:42;;;;;;;2.15;1.25;;;22.60;67.00;;;;;;10554673;28;20516;-33
2023/09/25 03:45:45;;;;;;;2.03;1.25;;;22.50;67.10;;;;;;10559596;28;20052;-34
2023/09/25 03:50:47;;;;;;;3.72;1.23;;;22.60;67.00;;;;;;10565387;28;20519;-39
2023/09/25 03:55:49;;;;;;;;;;;22.50;67.00;;;;;;10574663;28;20035;-32
2023/09/25 04:00:52;;;;;;;1.65;0.90;;;22.60;67.20;;;;;;10579737;28;19970;-34
2023/09/25 04:05:54;;;;;;;2.28;1.30;;;22.60;67.30;;;;;;10565447;28;20047;-36
2023/09/25 04:10:56;;;;;;;1.52;0.90;;;22.60;67.10;;;;;;10563713;28;20055;-44
2023/09/25 04:16:02;;;;;;;2.15;1.30;;;22.60;67.20;;;;;;10551959;28;20616;-37
2023/09/25 04:21:05;;;;;;;1.75;1.25;;;22.60;67.10;;;;;;10560339;28;20039;-41
2023/09/25 04:26:07;;;;;;;3.08;1.20;;;22.60;67.30;;;;;;10538428;28;20051;-41
2023/09/25 04:31:11;;;;;;;1.85;1.00;;;22.60;67.30;;;;;;10521479;28;20063;-35
2023/09/25 04:36:13;;;;;;;1.25;1.00;;;22.40;67.70;;;;;;10526899;28;20048;-31
2023/09/25 04:41:14;;;;;;;2.92;1.58;;;22.50;67.40;;;;;;10530621;28;20069;-37
2023/09/25 04:46:18;;;;;;;1.67;0.95;;;22.40;67.40;;;;;;10533338;28;20127;-34
2023/09/25 04:51:20;;;;;;;1.98;1.30;;;22.50;67.50;;;;;;10529341;28;20047;-31
2023/09/25 04:56:22;;;;;;;2.08;1.23;;;22.40;67.40;;;;;;10537242;28;20040;-35
2023/09/25 05:01:25;;;;;;;2.67;1.48;;;22.40;67.50;;;;;;10533476;28;20047;-35
2023/09/25 05:06:27;;;;;;;1.30;0.90;;;22.50;67.40;;;;;;10534009;28;20209;-38
2023/09/25 05:11:29;;;;;;;1.85;0.93;;;22.40;67.50;;;;;;10526620;28;20270;-40
2023/09/25 05:16:32;;;;;;;4.40;1.50;;;22.40;67.30;;;;;;10516817;28;20392;-39
2023/09/25 05:21:34;;;;;;;1.77;1.33;;;22.40;67.60;;;;;;10525823;28;20131;-31
2023/09/25 05:26:36;;;;;;;2.63;1.52;;;22.50;67.60;;;;;;10533014;28;20060;-38
2023/09/25 05:31:40;;;;;;;2.13;0.93;;;22.40;67.70;;;;;;10528817;28;20135;-39
2023/09/25 05:36:41;;;;;;;2.45;1.45;;;22.50;67.80;;;;;;10505545;28;20044;-32
2023/09/25 05:41:43;;;;;;;2.70;1.60;;;22.40;67.70;;;;;;10531112;28;20052;-39
2023/09/25 05:46:46;;;;;;;2.10;1.50;;;22.30;67.10;;;;;;10524692;28;20147;-31
2023/09/25 05:51:53;;;;;;;3.05;1.50;;;22.40;67.70;;;;;;10528758;28;20128;-34
2023/09/25 05:56:54;;;;;;;20.58;2.65;;;22.40;67.90;;;;;;10520845;28;20048;-35
2023/09/25 06:01:58;;;;;;;26.10;3.92;;;22.50;67.60;;;;;;10517814;28;20230;-35
2023/09/25 06:06:59;;;;;;;16.08;2.20;;;22.40;67.90;;;;;;10515932;28;20072;-34
2023/09/25 06:12:02;;;;;;;6.95;1.42;;;22.30;67.90;;;;;;10534183;28;20501;-34
2023/09/25 06:17:05;;;;;;;7.53;1.80;;;22.40;68.00;;;;;;10512645;28;20091;-33
2023/09/25 06:22:07;;;;;;;7.85;1.73;;;22.40;67.70;;;;;;10530107;28;20106;-29
2023/09/25 06:27:10;;;;;;;4.88;1.20;;;22.40;67.80;;;;;;10531606;28;20086;-38
2023/09/25 06:32:13;;;;;;;8.68;1.30;;;22.30;68.00;;;;;;10531458;28;20097;-31
2023/09/25 06:37:15;;;;;;;3.05;1.08;;;22.40;67.70;;;;;;10533869;28;20101;-45
2023/09/25 06:42:18;;;;;;;2.83;1.10;;;22.40;67.50;;;;;;10536750;28;20079;-36
2023/09/25 06:47:21;;;;;;;3.13;1.20;;;22.40;67.70;;;;;;10525436;28;20051;-37
2023/09/25 06:52:23;;;;;;;3.42;1.17;;;22.30;67.70;;;;;;10522816;28;20101;-40
2023/09/25 06:57:25;;;;;;;1.77;1.20;;;22.30;67.60;;;;;;10524396;28;20071;-45
2023/09/25 07:02:28;;;;;;;;;;;22.40;67.40;;;;;;10525201;28;20040;-37
2023/09/25 07:07:30;;;;;;;2.10;0.80;;;22.40;67.40;;;;;;10523780;28;19920;-37
2023/09/25 07:12:32;;;;;;;4.22;1.65;;;22.40;66.70;;;;;;10525803;28;20055;-40
2023/09/25 07:17:35;;;;;;;;;;;22.20;67.60;;;;;;10511649;28;20045;-38
2023/09/25 07:22:36;;;;;;;2.15;1.00;;;22.30;67.60;;;;;;10523090;28;20673;-32
2023/09/25 07:27:38;;;;;;;2.17;1.40;;;22.20;68.10;;;;;;10526188;28;20040;-35
2023/09/25 07:32:42;;;;;;;1.45;1.05;;;22.30;67.30;;;;;;10526343;28;20086;-34
2023/09/25 07:37:44;;;;;;;1.85;1.40;;;22.20;67.80;;;;;;10523780;28;20078;-37
2023/09/25 07:42:46;;;;;;;2.50;1.17;;;22.30;67.40;;;;;;10521302;28;20067;-43
2023/09/25 07:47:52;;;;;;;2.88;1.13;;;22.30;67.40;;;;;;10518750;28;20127;-35
2023/09/25 07:52:54;;;;;;;2.72;1.38;;;22.30;66.90;;;;;;10521102;28;20082;-37
2023/09/25 07:57:56;;;;;;;3.55;1.50;;;22.30;67.30;;;;;;10525185;28;20058;-36
2023/09/25 08:02:59;;;;;;;2.22;1.00;;;22.30;67.40;;;;;;10527582;28;20147;-32
2023/09/25 08:08:01;;;;;;;1.83;1.10;;;22.10;67.10;;;;;;10534250;28;20135;-33
2023/09/25 08:13:03;;;;;;;;;;;21.90;68.60;;;;;;10526758;28;20512;-36
2023/09/25 08:18:06;;;;;;;2.37;1.40;;;22.30;67.40;;;;;;10529688;28;20007;-32
2023/09/25 08:23:08;;;;;;;3.75;1.40;;;22.20;67.80;;;;;;10535306;28;20454;-34
2023/09/25 08:28:10;;;;;;;1.45;0.82;;;21.80;69.20;;;;;;10514953;28;20052;-32
2023/09/25 08:33:15;;;;;;;2.60;1.02;;;22.40;67.10;;;;;;10541208;28;20146;-33
2023/09/25 08:38:17;;;;;;;1.77;0.88;;;22.10;67.20;;;;;;10534581;28;20052;-40
2023/09/25 08:43:21;;;;;;;3.75;1.67;;;21.90;69.70;;;;;;10529306;28;20072;-42
2023/09/25 08:48:24;;;;;;;2.30;1.00;;;21.30;70.40;;;;;;10530765;28;20036;-44
2023/09/25 08:53:27;;;;;;;3.45;1.38;;;21.90;69.70;;;;;;10528771;28;20083;-36
2023/09/25 08:58:29;;;;;;;2.30;1.27;;;22.10;68.60;;;;;;10523363;28;20044;-37
2023/09/25 09:03:34;;;;;;;;;;;21.40;70.60;;;;;;10537681;28;20082;-42
2023/09/25 09:08:37;;;;;;;1.50;0.90;;;22.20;68.50;;;;;;10531674;28;20015;-37
2023/09/25 09:13:46;;;;;;;2.88;1.48;;;22.50;67.20;;;;;;10530953;28;20052;-42
2023/09/25 09:18:49;;;;;;;3.75;1.50;;;21.80;68.60;;;;;;10540516;28;20040;-32
2023/09/25 09:23:53;;;;;;;8.45;2.13;;;22.30;68.00;;;;;;10538647;28;20055;-40
2023/09/25 09:28:55;;;;;;;5.93;1.60;;;20.20;74.50;;;;;;10528510;28;20048;-40
2023/09/25 09:33:59;;;;;;;3.20;1.25;;;19.80;79.50;;;;;;10529462;28;20052;-29
2023/09/25 09:39:03;;;;;;;6.43;1.75;;;21.50;72.40;;;;;;10530064;28;20135;-38
2023/09/25 09:44:06;;;;;;;2.25;1.35;;;21.50;72.10;;;;;;10530031;28;20044;-33
2023/09/25 09:49:10;;;;;;;2.80;1.10;;;21.20;75.60;;;;;;10529266;28;20190;-43
2023/09/25 09:54:13;;;;;;;5.40;1.38;;;22.50;68.60;;;;;;10528584;28;20075;-32
2023/09/25 09:59:15;;;;;;;1.60;0.93;;;22.40;68.40;;;;;;10523052;28;20035;-38
2023/09/25 10:04:20;;;;;;;2.50;1.33;;;22.60;68.60;;;;;;10540253;28;20109;-31
2023/09/25 10:09:22;;;;;;;3.22;1.35;;;23.10;66.50;;;;;;10525623;28;20048;-34
2023/09/25 10:14:24;;;;;;;;;;;22.70;67.20;;;;;;10522666;28;20069;-40
2023/09/25 10:19:45;;;;;;;;;;;23.00;66.60;;;;;;10533776;28;20468;-34
2023/09/25 10:24:59;;;;;;;3.80;1.40;;;22.30;69.60;;;;;;10546940;28;19919;-41
2023/09/25 10:30:11;;;;;;;2.38;1.20;;;22.60;68.30;;;;;;10520955;28;20048;-37
2023/09/25 10:35:42;;;;;;;5.40;1.80;;;22.40;69.30;;;;;;10534532;28;20039;-34
2023/09/25 10:40:46;;;;;;;8.38;2.35;;;22.70;68.20;;;;;;10535920;28;20048;-35
2023/09/25 10:45:48;;;;;;;5.65;2.10;;;22.10;73.00;;;;;;10547779;28;20063;-37
2023/09/25 10:50:50;;;;;;;3.65;1.60;;;21.50;75.70;;;;;;10539966;28;20166;-41
2023/09/25 10:55:54;;;;;;;6.75;2.03;;;22.20;71.50;;;;;;10526368;28;20084;-31
2023/09/25 11:00:57;;;;;;;4.18;1.30;;;22.50;72.30;;;;;;10536033;28;20074;-42
2023/09/25 11:05:59;;;;;;;5.53;1.83;;;22.30;71.50;;;;;;10546386;28;20130;-36
2023/09/25 11:11:02;;;;;;;;;;;22.00;75.80;;;;;;10544838;28;20130;-41
2023/09/25 11:16:04;;;;;;;6.38;2.17;;;21.80;75.90;;;;;;10527886;28;20006;-36
2023/09/25 11:21:10;;;;;;;3.50;1.23;;;21.60;78.00;;;;;;10524809;28;20067;-31
2023/09/25 11:26:14;;;;;;;3.85;1.80;;;22.40;73.20;;;;;;10528640;28;20044;-41
2023/09/25 11:31:16;;;;;;;13.90;3.17;;;21.70;78.00;;;;;;10519174;28;20101;-47
2023/09/25 11:36:18;;;;;;;6.82;1.80;;;21.90;81.40;;;;;;10527422;28;20089;-33
2023/09/25 11:41:21;;;;;;;7.70;1.50;;;21.70;81.10;;;;;;10539068;28;20073;-36
2023/09/25 11:46:23;;;;;;;5.03;1.55;;;22.00;80.20;;;;;;10530640;28;20067;-41
2023/09/25 11:51:25;;;;;;;;;;;22.40;76.00;;;;;;10531731;28;20055;-36
2023/09/25 11:56:28;;;;;;;3.15;1.30;;;22.60;76.40;;;;;;10523263;28;19930;-28
2023/09/25 12:01:30;;;;;;;2.40;1.45;;;22.00;76.70;;;;;;10532058;28;20089;-32
2023/09/25 12:06:34;;;;;;;2.45;1.75;;;23.00;71.40;;;;;;10534925;28;20056;-32
2023/09/25 12:11:37;;;;;;;1.85;1.38;;;22.50;76.90;;;;;;10529075;28;20066;-34
2023/09/25 12:16:38;;;;;;;8.95;2.45;;;22.70;73.90;;;;;;10533674;28;20078;-37
2023/09/25 12:21:40;;;;;;;3.30;1.67;;;22.30;80.50;;;;;;10528804;28;20063;-32
2023/09/25 12:26:43;;;;;;;4.88;2.42;;;22.60;74.90;;;;;;10535777;28;20698;-45
2023/09/25 12:31:46;;;;;;;3.88;1.60;;;22.60;78.60;;;;;;10546172;28;20074;-43
2023/09/25 12:36:48;;;;;;;4.68;2.15;;;22.90;73.60;;;;;;10534462;28;20094;-38
2023/09/25 12:41:51;;;;;;;5.28;2.13;;;22.10;81.90;;;;;;10532184;28;20049;-35
2023/09/25 12:46:53;;;;;;;6.82;1.98;;;21.40;90.00;;;;;;10528873;28;20043;-39
2023/09/25 12:51:55;;;;;;;2.97;1.08;;;22.20;92.40;;;;;;10534206;28;20125;-33
2023/09/25 12:56:59;;;;;;;4.50;1.52;;;22.00;86.40;;;;;;10525215;28;20048;-35
2023/09/25 13:02:01;;;;;;;3.20;1.50;;;22.20;80.80;;;;;;10532015;28;20068;-45
2023/09/25 13:07:03;;;;;;;;;;;22.50;79.40;;;;;;10541328;28;20126;-36
2023/09/25 13:12:06;;;;;;;3.85;1.50;;;22.40;85.00;;;;;;10537759;28;20408;-31
2023/09/25 13:17:08;;;;;;;5.45;2.83;;;22.90;76.40;;;;;;10534320;28;20051;-31
2023/09/25 13:22:11;;;;;;;4.45;1.65;;;22.40;83.40;;;;;;10537054;28;20078;-39
2023/09/25 13:27:14;;;;;;;5.70;2.40;;;22.70;80.90;;;;;;10534379;28;20507;-36
2023/09/25 13:32:16;;;;;;;7.40;2.47;;;22.60;78.80;;;;;;10535775;28;20044;-38
2023/09/25 13:37:18;;;;;;;7.97;2.40;;;21.30;96.30;;;;;;10535068;28;20075;-40
2023/09/25 13:42:22;;;;;;;4.80;2.00;;;21.80;91.50;;;;;;10540610;28;20036;-36
2023/09/25 13:47:23;;;;;;;6.43;2.00;;;21.90;91.10;;;;;;10531653;28;20093;-38
2023/09/25 13:52:25;;;;;;;3.70;1.40;;;22.40;84.70;;;;;;10521734;28;20047;-38
2023/09/25 13:57:29;;;;;;;3.05;1.40;;;23.20;75.70;;;;;;10519180;28;20056;-32
2023/09/25 14:02:30;;;;;;;4.70;1.20;;;22.80;79.50;;;;;;10526273;28;20189;-40
2023/09/25 14:07:32;;;;;;;5.22;1.70;;;23.20;79.90;;;;;;10514180;28;20036;-31
2023/09/25 14:12:35;;;;;;;3.55;1.40;;;22.40;86.00;;;;;;10528027;28;20080;-37
2023/09/25 14:17:37;;;;;;;2.45;1.15;;;23.10;76.90;;;;;;10522708;28;20051;-32
2023/09/25 14:22:40;;;;;;;;;;;23.60;73.70;;;;;;10532493;28;20485;-31
2023/09/25 14:27:43;;;;;;;6.00;1.75;;;23.50;74.00;;;;;;10525184;28;20446;-35
2023/09/25 14:32:45;;;;;;;8.70;3.63;;;22.90;81.10;;;;;;10526348;28;20123;-36
2023/09/25 14:37:47;;;;;;;5.32;1.38;;;22.60;88.30;;;;;;10533763;28;20039;-36
2023/09/25 14:42:51;;;;;;;5.75;1.48;;;23.00;78.50;;;;;;10533694;28;20059;-37
2023/09/25 14:47:53;;;;;;;2.38;1.30;;;23.40;77.20;;;;;;10524657;28;20139;-37
2023/09/25 14:52:54;;;;;;;;;;;23.40;79.40;;;;;;10538645;28;20560;-35
2023/09/25 14:57:58;;;;;;;3.13;1.17;;;23.50;76.20;;;;;;10523182;28;20018;-40
2023/09/25 15:03:02;;;;;;;3.88;1.40;;;23.90;73.40;;;;;;10524090;28;20560;-32
2023/09/25 15:08:04;;;;;;;2.67;1.35;;;23.90;73.40;;;;;;10523316;28;20112;-32
2023/09/25 15:13:07;;;;;;;10.75;1.90;;;24.00;72.60;;;;;;10514663;28;20642;-42
2023/09/25 15:18:09;;;;;;;9.85;1.75;;;24.00;74.40;;;;;;10533488;28;20078;-34
2023/09/25 15:23:11;;;;;;;;;;;24.10;77.80;;;;;;10530415;28;20480;-32
2023/09/25 15:28:14;;;;;;;5.13;2.05;;;24.50;73.30;;;;;;10525793;28;20015;-32
2023/09/25 15:33:16;;;;;;;13.25;2.60;;;25.00;75.60;;;;;;10525865;28;20044;-35
2023/09/25 15:38:18;;;;;;;;;;;25.40;73.30;;;;;;10518501;28;20453;-38
2023/09/25 15:43:21;;;;;;;6.43;1.80;;;25.20;69.20;;;;;;10530539;28;20020;-32
2023/09/25 15:48:23;;;;;;;4.10;1.50;;;26.00;76.40;;;;;;10528957;28;20109;-35
2023/09/25 15:53:25;;;;;;;3.50;1.90;;;25.90;70.80;;;;;;10524517;28;20139;-37
2023/09/25 15:58:28;;;;;;;4.97;1.27;;;25.60;74.50;;;;;;10526885;28;21079;-35
2023/09/25 16:03:30;;;;;;;1.83;1.08;;;25.70;67.80;;;;;;10533690;28;20436;-38
2023/09/25 16:08:32;;;;;;;4.53;2.17;;;25.70;68.00;;;;;;10521691;28;20046;-36
2023/09/25 16:13:35;;;;;;;5.40;2.30;;;25.70;72.10;;;;;;10540242;28;20148;-32
2023/09/25 16:18:36;;;;;;;5.00;1.88;;;25.80;71.10;;;;;;10522425;28;20548;-33
2023/09/25 16:23:40;;;;;;;;;;;26.10;74.00;;;;;;10544092;28;20101;-38
2023/09/25 16:28:43;;;;;;;3.63;0.85;;;26.00;73.70;;;;;;10520091;28;20433;-31
2023/09/25 16:33:45;;;;;;;7.55;2.15;;;25.80;68.30;;;;;;10532118;28;20648;-38
2023/09/25 16:38:47;;;;;;;;;;;25.70;72.80;;;;;;10520205;28;20105;-38
2023/09/25 16:43:51;;;;;;;2.20;1.10;;;25.70;70.50;;;;;;10533422;28;19923;-38
2023/09/25 16:48:52;;;;;;;4.70;2.60;;;25.50;70.80;;;;;;10537846;28;20527;-44
2023/09/25 16:53:54;;;;;;;;;;;25.40;75.00;;;;;;10541934;28;20138;-36
2023/09/25 16:58:59;;;;;;;2.67;1.05;;;25.30;69.40;;;;;;10527262;28;20265;-39
2023/09/25 17:04:01;;;;;;;2.42;0.90;;;25.40;69.50;;;;;;10521507;28;20066;-40
2023/09/25 17:09:03;;;;;;;2.88;1.27;;;25.30;69.20;;;;;;10529937;28;20048;-35
2023/09/25 17:14:09;;;;;;;2.45;1.40;;;25.30;69.30;;;;;;10516677;28;20489;-40
2023/09/25 17:19:11;;;;;;;1.52;0.85;;;25.30;69.40;;;;;;10538611;28;20048;-38
2023/09/25 17:24:13;;;;;;;;;;;25.30;69.50;;;;;;10514859;28;20110;-31
2023/09/25 17:29:16;;;;;;;1.92;1.50;;;25.30;69.40;;;;;;10517577;28;19959;-33
2023/09/25 17:34:18;;;;;;;3.25;1.35;;;25.20;69.60;;;;;;10532902;28;20140;-31
2023/09/25 17:39:19;;;;;;;2.63;1.30;;;25.20;70.20;;;;;;10532409;28;20094;-37
2023/09/25 17:44:23;;;;;;;3.00;1.58;;;25.20;70.60;;;;;;10535700;28;20073;-35
2023/09/25 17:49:24;;;;;;;2.03;1.00;;;25.20;71.10;;;;;;10528875;28;20071;-37
2023/09/25 17:54:26;;;;;;;2.40;1.30;;;25.20;71.30;;;;;;10538852;28;20105;-41
2023/09/25 17:59:30;;;;;;;2.13;1.30;;;25.10;71.30;;;;;;10535815;28;20040;-31
2023/09/25 18:04:32;;;;;;;3.00;1.30;;;25.10;71.60;;;;;;10515905;28;20048;-33
2023/09/25 18:09:34;;;;;;;3.08;1.45;;;25.10;72.00;;;;;;10529553;28;20047;-35
2023/09/25 18:14:37;;;;;;;;;;;25.00;72.40;;;;;;10540215;28;20052;-34
2023/09/25 18:19:39;;;;;;;1.73;1.20;;;25.00;72.60;;;;;;10523151;28;20358;-36
2023/09/25 18:24:41;;;;;;;2.72;0.90;;;25.00;73.00;;;;;;10530580;28;20106;-40
2023/09/25 18:29:44;;;;;;;;;;;25.00;73.30;;;;;;10494296;28;20132;-31
2023/09/25 18:34:46;;;;;;;2.58;1.40;;;24.90;73.40;;;;;;10523855;28;20030;-39
2023/09/25 18:39:47;;;;;;;;;;;24.90;73.60;;;;;;10527038;28;20800;-31
2023/09/25 18:44:51;;;;;;;13.13;5.22;;;24.90;73.90;;;;;;10536950;28;19965;-33
2023/09/25 18:49:52;;;;;;;12.32;4.93;;;24.80;74.20;;;;;;10505110;28;20040;-39
2023/09/25 18:54:54;;;;;;;;;;;24.90;74.40;;;;;;10505668;28;20455;-40
2023/09/25 18:59:57;;;;;;;13.73;4.50;;;24.80;74.80;;;;;;10515554;28;19943;-48
2023/09/25 19:05:00;;;;;;;14.43;4.72;;;24.80;74.90;;;;;;10512469;28;20056;-40
2023/09/25 19:10:04;;;;;;;6.93;3.53;;;24.80;75.00;;;;;;10514594;28;20462;-42
2023/09/25 19:15:08;;;;;;;8.93;4.00;;;24.70;75.10;;;;;;10519722;28;20079;-38
2023/09/25 19:20:11;;;;;;;7.82;2.88;;;24.70;75.00;;;;;;10521926;28;20506;-44
2023/09/25 19:25:12;;;;;;;6.32;3.03;;;24.70;75.00;;;;;;10523246;28;20098;-36
2023/09/25 19:30:15;;;;;;;;;;;24.70;75.00;;;;;;10525573;28;20132;-39
2023/09/25 19:35:18;;;;;;;7.93;2.95;;;24.70;75.40;;;;;;10522633;28;20038;-32
2023/09/25 19:40:20;;;;;;;9.55;2.83;;;24.60;75.00;;;;;;10524994;28;20098;-35
2023/09/25 19:45:23;;;;;;;;;;;24.60;75.00;;;;;;10522919;28;20109;-40
2023/09/25 19:50:25;;;;;;;6.95;2.28;;;24.50;75.10;;;;;;10525804;28;19949;-41
2023/09/25 19:55:27;;;;;;;5.00;2.80;;;24.50;75.10;;;;;;10519639;28;20048;-38
2023/09/25 20:00:30;;;;;;;;;;;24.50;75.10;;;;;;10532681;28;20047;-39
2023/09/25 20:05:32;;;;;;;6.43;2.70;;;24.50;75.10;;;;;;10531914;28;19963;-32
2023/09/25 20:10:34;;;;;;;5.88;2.03;;;24.40;75.20;;;;;;10528658;28;20044;-35
2023/09/25 20:15:38;;;;;;;;;;;24.40;75.20;;;;;;10533470;28;20156;-32
2023/09/25 20:20:40;;;;;;;4.20;2.15;;;24.40;75.20;;;;;;10535738;28;20002;-34
2023/09/25 20:25:42;;;;;;;5.90;2.35;;;24.40;75.20;;;;;;10518369;28;20485;-33
2023/09/25 20:30:45;;;;;;;;;;;24.40;75.30;;;;;;10527975;28;21563;-32
2023/09/25 20:35:47;;;;;;;8.20;3.05;;;24.30;75.30;;;;;;10527990;28;20014;-44
2023/09/25 20:40:50;;;;;;;4.07;1.90;;;24.30;75.40;;;;;;10530537;28;20412;-41
2023/09/25 20:45:53;;;;;;;8.10;2.05;;;24.30;75.30;;;;;;10504156;28;20064;-36
2023/09/25 20:50:56;;;;;;;8.15;2.22;;;24.30;75.60;;;;;;10530362;28;20040;-44
2023/09/25 20:55:58;;;;;;;5.85;2.47;;;24.30;75.50;;;;;;10537263;28;20413;-44
2023/09/25 21:01:01;;;;;;;5.78;2.55;;;24.30;75.50;;;;;;10527139;28;20110;-35
2023/09/25 21:06:03;;;;;;;4.18;2.00;;;24.20;75.40;;;;;;10510458;28;20143;-32
2023/09/25 21:11:05;;;;;;;;;;;24.20;75.60;;;;;;10524560;28;20139;-38
2023/09/25 21:16:08;;;;;;;4.55;2.50;;;24.20;75.60;;;;;;10529058;28;19981;-33
2023/09/25 21:21:09;;;;;;;6.03;2.03;;;24.10;75.50;;;;;;10534409;28;20035;-33
2023/09/25 21:26:15;;;;;;;5.90;2.13;;;24.10;75.70;;;;;;10530873;28;20067;-40
2023/09/25 21:31:19;;;;;;;4.75;1.90;;;24.10;75.70;;;;;;10517006;28;20377;-34
2023/09/25 21:36:21;;;;;;;4.30;2.17;;;24.10;75.70;;;;;;10524349;28;20047;-36
2023/09/25 21:41:23;;;;;;;8.13;1.88;;;24.10;75.80;;;;;;10532915;28;20105;-34
2023/09/25 21:46:26;;;;;;;6.35;2.30;;;24.00;75.80;;;;;;10503029;28;20621;-34
2023/09/25 21:51:28;;;;;;;5.75;2.72;;;24.00;75.70;;;;;;10522705;28;20060;-36
2023/09/25 21:56:29;;;;;;;;;;;24.00;75.80;;;;;;10520984;28;20159;-36
2023/09/25 22:01:33;;;;;;;5.57;2.00;;;23.90;76.00;;;;;;10526027;28;20027;-37
2023/09/25 22:06:34;;;;;;;3.75;2.17;;;23.90;75.90;;;;;;10529966;28;20536;-36
2023/09/25 22:11:36;;;;;;;;;;;23.90;75.70;;;;;;10528640;28;20484;-31
2023/09/25 22:16:41;;;;;;;3.60;2.10;;;23.90;75.80;;;;;;10517885;28;19920;-37
2023/09/25 22:21:44;;;;;;;4.63;1.90;;;23.90;75.70;;;;;;10522268;28;20049;-34
2023/09/25 22:26:46;;;;;;;6.05;2.20;;;23.90;76.00;;;;;;10512213;28;20169;-35
2023/09/25 22:31:50;;;;;;;8.02;1.77;;;23.80;76.00;;;;;;10514402;28;20044;-33
2023/09/25 22:36:52;;;;;;;2.35;1.50;;;23.80;76.00;;;;;;10527678;28;20167;-38
2023/09/25 22:41:54;;;;;;;6.07;2.05;;;23.80;75.90;;;;;;10523559;28;20112;-34
2023/09/25 22:46:57;;;;;;;4.40;1.75;;;23.80;75.80;;;;;;10527704;28;20140;-40
2023/09/25 22:51:59;;;;;;;4.25;1.98;;;23.80;76.10;;;;;;10528973;28;20147;-38
2023/09/25 22:57:00;;;;;;;4.68;2.17;;;23.70;76.10;;;;;;10522957;28;20121;-42
2023/09/25 23:02:19;;;;;;;;;;;23.70;76.10;;;;;;10525889;28;20109;-32
2023/09/25 23:07:21;;;;;;;5.65;1.85;;;23.70;76.10;;;;;;10535277;28;19970;-37
2023/09/25 23:12:24;;;;;;;2.92;1.70;;;23.70;76.10;;;;;;10523416;28;20097;-34
2023/09/25 23:17:27;;;;;;;3.63;1.40;;;23.70;76.00;;;;;;10526979;28;20052;-42
2023/09/25 23:22:29;;;;;;;5.78;1.83;;;23.70;76.10;;;;;;10524046;28;20135;-32
2023/09/25 23:27:30;;;;;;;;;;;23.70;76.20;;;;;;10528435;28;20055;-42
2023/09/25 23:32:34;;;;;;;2.60;1.70;;;23.60;76.30;;;;;;10533595;28;19927;-31
2023/09/25 23:37:37;;;;;;;3.75;1.65;;;23.60;76.40;;;;;;10537022;28;20055;-33
2023/09/25 23:42:39;;;;;;;3.78;1.75;;;23.60;76.40;;;;;;10535942;28;20413;-33
2023/09/25 23:47:42;;;;;;;3.13;1.60;;;23.60;76.40;;;;;;10529501;28;20055;-45
2023/09/25 23:52:47;;;;;;;3.97;1.65;;;23.60;76.30;;;;;;10529536;28;20516;-31
2023/09/25 23:57:49;;;;;;;4.68;1.58;;;23.50;76.40;;;;;;10540190;28;20544;-31
